METAR Data
IDs: Format: Raw Decoded Include TAF

Data at: 0050 UTC 05 Jul 2022

OEDF 050000Z 27005KT CAVOK 32/06 Q0994 NOSIG